KC5JIM Weather Reports


Display with metric or nautical units.
time (UTC)temp
F
wind
direction
speed
MPH
gust
MPH
rain 1hr
in
rain 24hr
in
rain mn
in
humidity
%
barometer
mb
20240522020134 87 224 11.0 15.0 0.00 0.00 0.00 10 1006.9
20240522015628 87 221 13.0 13.0 0.00 0.00 0.00 10 1007.0
20240522015122 88 224 8.0 16.0 0.00 0.00 0.00 10 1006.9
20240522014616 88 223 7.0 20.0 0.00 0.00 0.00 10 1006.9
20240522014327 88 190 9.0 15.0 0.00 0.00 0.00 10 1006.8
20240522013604 88 212 6.0 14.0 0.00 0.00 0.00 10 1006.7
20240522013059 89 209 6.0 15.0 0.00 0.00 0.00 10 1006.6
20240522012553 89 207 4.0 13.0 0.00 0.00 0.00 10 1006.5
20240522012047 89 226 8.0 15.0 0.00 0.00 0.00 10 1006.6
20240522011541 89 178 11.0 15.0 0.00 0.00 0.00 10 1006.8
20240522011254 89 233 13.0 20.0 0.00 0.00 0.00 10 1006.9
20240522010528 89 233 7.0 14.0 0.00 0.00 0.00 9 1006.6
20240522010022 90 187 7.0 16.0 0.00 0.00 0.00 10 1006.6
20240522005516 90 219 6.0 11.0 0.00 0.00 0.00 10 1006.6
20240522005010 90 219 10.0 13.0 0.00 0.00 0.00 9 1006.7
20240522004504 90 216 6.0 15.0 0.00 0.00 0.00 9 1006.4
20240522003958 90 190 6.0 11.0 0.00 0.00 0.00 9 1006.4
20240522003709 90 148 8.0 13.0 0.00 0.00 0.00 9 1006.5
20240522002947 90 190 11.0 15.0 0.00 0.00 0.00 9 1006.4
20240522002440 90 213 12.0 23.0 0.00 0.00 0.00 9 1006.2
20240522001934 90 202 9.0 16.0 0.00 0.00 0.00 9 1006.0
20240522001429 91 235 5.0 12.0 0.00 0.00 0.00 10 1006.4
20240522000922 90 253 4.0 13.0 0.00 0.00 0.00 10 1006.3
20240522000905 90 233 5.0 13.0 0.00 0.00 0.00 10 1006.3
20240521184619 84 252 6.0 18.0 0.00 0.00 0.00 17 1009.0
20240521184547 84 235 9.0 19.0 0.00 0.00 0.00 17 1009.0
20240521181519 82 264 3.0 8.0 0.00 0.00 0.00 21 1009.3
20240521181013 83 190 6.0 15.0 0.00 0.00 0.00 20 1009.4
20240521180507 83 192 8.0 9.0 0.00 0.00 0.00 20 1009.3
20240521180001 83 115 2.0 4.0 0.00 0.00 0.00 20 1009.4
20240521175714 84 34 2.0 6.0 0.00 0.00 0.00 20 1009.4
20240521174949 83 22 4.0 8.0 0.00 0.00 0.00 20 1009.6
20240521174443 83 178 4.0 6.0 0.00 0.00 0.00 20 1009.5
20240521173937 82 282 2.0 8.0 0.00 0.00 0.00 21 1009.5
20240521173431 81 162 7.0 10.0 0.00 0.00 0.00 21 1009.6
20240521172925 82 200 9.0 15.0 0.00 0.00 0.00 21 1009.7
20240521172419 81 183 6.0 9.0 0.00 0.00 0.00 21 1009.7
20240521172128 82 127 11.0 15.0 0.00 0.00 0.00 21 1009.7
20240521171407 82 137 5.0 7.0 0.00 0.00 0.00 20 1009.8
20240521170901 80 98 0.0 7.0 0.00 0.00 0.00 21 1009.8
20240521170355 82 28 2.0 8.0 0.00 0.00 0.00 21 1010.1
20240521165848 81 88 2.0 9.0 0.00 0.00 0.00 21 1009.9
20240521165342 82 100 4.0 13.0 0.00 0.00 0.00 21 1009.9
20240521164837 82 11 5.0 10.0 0.00 0.00 0.00 21 1009.6
20240521164331 80 332 1.0 4.0 0.00 0.00 0.00 22 1009.9
20240521163824 80 175 1.0 7.0 0.00 0.00 0.00 22 1009.7
20240521163318 80 249 4.0 7.0 0.00 0.00 0.00 23 1009.7
20240521162812 80 200 3.0 6.0 0.00 0.00 0.00 22 1010.1
20240521162307 80 204 2.0 5.0 0.00 0.00 0.00 22 1009.9
20240521162017 80 205 4.0 6.0 0.00 0.00 0.00 23 1010.1
20240521161254 80 164 5.0 9.0 0.00 0.00 0.00 22 1010.0
20240521160749 80 136 4.0 9.0 0.00 0.00 0.00 22 1009.9
20240521160501 80 82 4.0 6.0 0.00 0.00 0.00 24 1009.9
20240521155737 80 131 2.0 4.0 0.00 0.00 0.00 23 1010.0
20240521155446 79 26 1.0 4.0 0.00 0.00 0.00 24 1010.0
20240521154724 78 195 2.0 5.0 0.00 0.00 0.00 24 1010.1
20240521154437 78 192 4.0 5.0 0.00 0.00 0.00 25 1010.0
20240521153712 77 167 1.0 13.0 0.00 0.00 0.00 26 1010.0
20240521153207 77 129 4.0 7.0 0.00 0.00 0.00 25 1010.2
20240521152701 76 131 3.0 6.0 0.00 0.00 0.00 25 1010.1
20240521152413 77 129 4.0 5.0 0.00 0.00 0.00 26 1009.9
20240521151906 77 133 6.0 7.0 0.00 0.00 0.00 26 1009.9
20240521151143 76 135 4.0 11.0 0.00 0.00 0.00 26 1009.8
20240521150637 76 124 3.0 6.0 0.00 0.00 0.00 26 1010.1
20240521150130 76 146 5.0 8.0 0.00 0.00 0.00 26 1010.2
20240521145624 75 120 2.0 3.0 0.00 0.00 0.00 29 1010.1
20240521145118 74 236 3.0 4.0 0.00 0.00 0.00 32 1009.9
20240521144612 74 261 2.0 4.0 0.00 0.00 0.00 32 1009.7
20240521144106 73 287 0.0 2.0 0.00 0.00 0.00 32 1009.6
20240521143600 72 249 2.0 3.0 0.00 0.00 0.00 33 1009.4
20240521143100 71 238 0.0 2.0 0.00 0.00 0.00 33 1009.7
20240521142554 71 289 1.0 2.0 0.00 0.00 0.00 35 1009.8
20240521142048 71 297 0.0 2.0 0.00 0.00 0.00 37 1009.6
20240521141800 71 305 1.0 2.0 0.00 0.00 0.00 36 1009.8
20240521141036 69 9 0.0 1.0 0.00 0.00 0.00 35 1010.0
20240521140746 67 196 0.0 2.0 0.00 0.00 0.00 41 1009.8
20240521140024 65 2 0.0 3.0 0.00 0.00 0.00 45 1009.7
20240521135518 64 354 3.0 3.0 0.00 0.00 0.00 47 1010.1
20240521135011 65 339 2.0 5.0 0.00 0.00 0.00 46 1009.5
20240521134505 66 332 2.0 2.0 0.00 0.00 0.00 45 1009.7
20240521134000 65 34 1.0 2.0 0.00 0.00 0.00 45 1009.6
20240521133454 63 209 0.0 2.0 0.00 0.00 0.00 47 1009.5
20240521132948 62 255 0.0 2.0 0.00 0.00 0.00 48 1009.8
20240521132442 62 318 0.0 2.0 0.00 0.00 0.00 47 1009.5
20240521131936 60 131 1.0 2.0 0.00 0.00 0.00 49 1009.6
20240521131430 58 316 1.0 2.0 0.00 0.00 0.00 51 1009.8
20240521130924 57 10 1.0 2.0 0.00 0.00 0.00 51 1009.5
20240521130418 57 23 1.0 3.0 0.00 0.00 0.00 52 1009.5
20240521125912 56 353 2.0 3.0 0.00 0.00 0.00 53 1009.4
20240521125405 56 255 0.0 2.0 0.00 0.00 0.00 53 1009.5
20240521124859 57 328 1.0 2.0 0.00 0.00 0.00 52 1009.4
20240521124354 57 29 1.0 2.0 0.00 0.00 0.00 51 1009.1
20240521123847 56 42 2.0 3.0 0.00 0.00 0.00 52 1009.2
20240521123342 56 25 2.0 3.0 0.00 0.00 0.00 53 1009.2
20240521122835 56 349 1.0 5.0 0.00 0.00 0.00 53 1008.9
20240521122329 56 5 3.0 4.0 0.00 0.00 0.00 53 1008.9
20240521121824 57 9 2.0 2.0 0.00 0.00 0.00 51 1009.1
20240521121533 58 345 1.0 2.0 0.00 0.00 0.00 50 1008.8
20240521120812 58 66 1.0 2.0 0.00 0.00 0.00 49 1008.8
20240521120306 57 46 2.0 3.0 0.00 0.00 0.00 50 1008.7
20240521115800 56 71 2.0 5.0 0.00 0.00 0.00 52 1008.6
20240521115514 55 63 1.0 3.0 0.00 0.00 0.00 54 1008.6
20240521115007 55 345 2.0 5.0 0.00 0.00 0.00 55 1008.7
20240521114242 56 328 2.0 4.0 0.00 0.00 0.00 53 1008.6
20240521113735 57 329 2.0 4.0 0.00 0.00 0.00 51 1008.5
20240521113230 57 43 2.0 4.0 0.00 0.00 0.00 51 1008.5
20240521112724 57 15 2.0 4.0 0.00 0.00 0.00 51 1008.6
20240521112217 58 341 2.0 5.0 0.00 0.00 0.00 50 1008.6
20240521111712 58 6 0.0 3.0 0.00 0.00 0.00 50 1008.5
20240521111422 57 338 2.0 2.0 0.00 0.00 0.00 50 1008.6
20240521110659 57 42 1.0 2.0 0.00 0.00 0.00 51 1008.7
20240521110413 58 358 0.0 4.0 0.00 0.00 0.00 51 1008.8
20240521105648 60 287 2.0 3.0 0.00 0.00 0.00 47 1008.7
20240521105142 60 17 2.0 4.0 0.00 0.00 0.00 46 1008.9
20240521104636 60 35 2.0 4.0 0.00 0.00 0.00 47 1008.6
20240521104130 59 32 3.0 3.0 0.00 0.00 0.00 47 1008.9
20240521103624 59 11 2.0 4.0 0.00 0.00 0.00 47 1008.8
20240521103118 58 6 1.0 4.0 0.00 0.00 0.00 48 1008.7
20240521102612 59 353 3.0 4.0 0.00 0.00 0.00 48 1009.0
20240521102106 59 11 1.0 2.0 0.00 0.00 0.00 48 1008.7
20240521101559 60 340 0.0 3.0 0.00 0.00 0.00 48 1008.8
20240521101053 60 330 2.0 2.0 0.00 0.00 0.00 47 1008.7
20240521100548 60 344 0.0 1.0 0.00 0.00 0.00 46 1008.9
20240521100042 61 331 0.0 2.0 0.00 0.00 0.00 45 1008.7
20240521095537 61 18 2.0 2.0 0.00 0.00 0.00 44 1008.6
20240521095512 61 45 2.0 4.0 0.00 0.00 0.00 44 1008.6
20240521094524 61 358 1.0 3.0 0.00 0.00 0.00 43 1008.8
20240521094018 61 16 2.0 3.0 0.00 0.00 0.00 43 1008.7
20240521093512 61 11 3.0 3.0 0.00 0.00 0.00 44 1008.7
20240521093448 62 342 1.0 3.0 0.00 0.00 0.00 42 1008.6
20240521092459 66 299 1.0 3.0 0.00 0.00 0.00 37 1008.7
20240521091954 67 93 2.0 3.0 0.00 0.00 0.00 35 1008.6
20240521091447 67 84 2.0 4.0 0.00 0.00 0.00 35 1008.7
20240521090941 67 80 3.0 4.0 0.00 0.00 0.00 35 1008.7
20240521090436 67 105 2.0 4.0 0.00 0.00 0.00 35 1008.8
20240521085930 67 74 2.0 4.0 0.00 0.00 0.00 35 1008.9
20240521085424 66 68 2.0 3.0 0.00 0.00 0.00 36 1008.9
20240521084918 66 75 2.0 3.0 0.00 0.00 0.00 36 1008.7
20240521084412 65 98 1.0 2.0 0.00 0.00 0.00 37 1008.9
20240521083906 64 86 3.0 6.0 0.00 0.00 0.00 38 1009.1
20240521083400 64 103 0.0 4.0 0.00 0.00 0.00 39 1009.1
20240521082854 64 29 0.0 1.0 0.00 0.00 0.00 39 1009.1
20240521082348 64 290 2.0 3.0 0.00 0.00 0.00 38 1008.9
20240521081842 65 222 1.0 2.0 0.00 0.00 0.00 37 1008.9
20240521081336 65 53 2.0 3.0 0.00 0.00 0.00 37 1009.0
20240521080830 66 326 0.0 3.0 0.00 0.00 0.00 37 1009.2
20240521080324 67 251 2.0 3.0 0.00 0.00 0.00 35 1009.1
20240521075818 68 335 1.0 4.0 0.00 0.00 0.00 34 1008.9
20240521075527 70 312 1.0 3.0 0.00 0.00 0.00 32 1008.9
20240521074806 71 327 0.0 4.0 0.00 0.00 0.00 31 1008.8
20240521074300 71 115 3.0 4.0 0.00 0.00 0.00 30 1009.0
20240521073754 71 128 2.0 6.0 0.00 0.00 0.00 30 1008.9
20240521073248 71 134 5.0 7.0 0.00 0.00 0.00 30 1008.8
20240521072742 71 121 2.0 5.0 0.00 0.00 0.00 30 1009.2
20240521072236 71 125 4.0 6.0 0.00 0.00 0.00 30 1009.0
20240521071730 71 137 4.0 6.0 0.00 0.00 0.00 30 1009.0
20240521071224 72 129 6.0 8.0 0.00 0.00 0.00 29 1009.1
20240521070718 72 104 4.0 6.0 0.00 0.00 0.00 29 1009.0
20240521070212 72 107 2.0 3.0 0.00 0.00 0.00 29 1009.2
20240521065705 73 135 3.0 7.0 0.00 0.00 0.00 28 1009.1
20240521065159 73 122 6.0 8.0 0.00 0.00 0.00 28 1009.0
20240521064653 72 113 2.0 4.0 0.00 0.00 0.00 29 1009.0
20240521064147 72 134 2.0 3.0 0.00 0.00 0.00 29 1009.1
20240521063642 72 147 0.0 6.0 0.00 0.00 0.00 29 1009.1
20240521063136 72 99 2.0 4.0 0.00 0.00 0.00 29 1008.9
20240521062630 73 124 2.0 6.0 0.00 0.00 0.00 28 1008.9
20240521062124 73 156 0.0 2.0 0.00 0.00 0.00 28 1008.8
20240521061618 74 123 1.0 4.0 0.00 0.00 0.00 28 1009.0
20240521061329 74 121 5.0 7.0 0.00 0.00 0.00 27 1009.1
20240521060606 74 124 5.0 7.0 0.00 0.00 0.00 27 1008.8
20240521060059 74 131 4.0 7.0 0.00 0.00 0.00 27 1009.1
20240521055553 74 131 5.0 7.0 0.00 0.00 0.00 27 1009.0
20240521055047 74 120 4.0 7.0 0.00 0.00 0.00 27 1009.2
20240521054541 74 116 4.0 6.0 0.00 0.00 0.00 27 1009.2
20240521054035 75 126 6.0 7.0 0.00 0.00 0.00 26 1009.0
20240521053529 75 131 4.0 8.0 0.00 0.00 0.00 26 1008.9
20240521053506 75 122 4.0 8.0 0.00 0.00 0.00 25 1009.0
20240521052518 76 120 3.0 7.0 0.00 0.00 0.00 25 1009.1
20240521052012 76 117 4.0 7.0 0.00 0.00 0.00 25 1008.9
20240521051505 76 112 2.0 8.0 0.00 0.00 0.00 25 1009.1
20240521051000 77 131 6.0 8.0 0.00 0.00 0.00 24 1009.3
20240521050453 77 131 4.0 9.0 0.00 0.00 0.00 24 1009.3
20240521045948 76 125 6.0 8.0 0.00 0.00 0.00 25 1009.1
20240521045926 76 124 5.0 9.0 0.00 0.00 0.00 24 1008.9
20240521044936 76 121 6.0 9.0 0.00 0.00 0.00 24 1009.1
20240521044647 76 131 6.0 8.0 0.00 0.00 0.00 24 1009.2
20240521043923 76 121 4.0 8.0 0.00 0.00 0.00 24 1009.1
20240521043417 76 150 2.0 7.0 0.00 0.00 0.00 24 1009.0
20240521042911 77 121 6.0 7.0 0.00 0.00 0.00 24 1009.1
20240521042405 77 151 2.0 7.0 0.00 0.00 0.00 23 1009.2
20240521042116 77 123 4.0 7.0 0.00 0.00 0.00 23 1009.1
20240521041354 77 128 4.0 8.0 0.00 0.00 0.00 23 1009.0
20240521040848 77 142 4.0 6.0 0.00 0.00 0.00 23 1009.0
20240521040342 77 93 2.0 6.0 0.00 0.00 0.00 23 1009.0
20240521035836 77 103 5.0 8.0 0.00 0.00 0.00 23 1008.9
20240521035550 78 145 6.0 6.0 0.00 0.00 0.00 23 1009.0
20240521034824 78 126 4.0 8.0 0.00 0.00 0.00 23 1008.9
20240521034318 78 139 5.0 8.0 0.00 0.00 0.00 22 1009.0
20240521033812 78 112 3.0 6.0 0.00 0.00 0.00 22 1008.8
20240521033521 78 126 8.0 8.0 0.00 0.00 0.00 22 1008.8
20240521032801 78 128 5.0 7.0 0.00 0.00 0.00 22 1008.8
20240521032512 78 136 3.0 6.0 0.00 0.00 0.00 22 1008.7
20240521031748 78 110 1.0 5.0 0.00 0.00 0.00 22 1008.7
20240521031242 78 129 1.0 5.0 0.00 0.00 0.00 22 1008.8
20240521030736 79 152 4.0 10.0 0.00 0.00 0.00 22 1008.7
20240521030230 78 128 10.0 10.0 0.00 0.00 0.00 22 1008.6
20240521025724 79 113 4.0 7.0 0.00 0.00 0.00 22 1008.6
20240521025218 79 116 3.0 7.0 0.00 0.00 0.00 22 1008.7
20240521024712 77 125 6.0 9.0 0.00 0.00 0.00 23 1008.5
20240521024206 76 264 2.0 7.0 0.00 0.00 0.00 27 1008.7
20240521023700 75 47 3.0 5.0 0.00 0.00 0.00 28 1008.7
20240521023410 76 333 1.0 2.0 0.00 0.00 0.00 28 1008.6
20240521022648 76 282 2.0 3.0 0.00 0.00 0.00 28 1008.4
20240521022625 77 305 1.0 3.0 0.00 0.00 0.00 28 1008.5
20240521021636 78 297 1.0 2.0 0.00 0.00 0.00 26 1008.3
20240521021347 78 350 0.0 2.0 0.00 0.00 0.00 25 1008.3
20240521020624 78 64 0.0 0.0 0.00 0.00 0.00 23 1008.3
20240521020602 78 118 0.0 2.0 0.00 0.00 0.00 24 1008.5